Time;durP1;ratioP1;P1;durP2;ratioP2;P2;SDS_P1;SDS_P2;PMS_P1;PMS_P2;Temp;Humidity;BMP_temperature;BMP_pressure;BME280_temperature;BME280_humidity;BME280_pressure;Samples;Min_cycle;Max_cycle;Signal;HPM_P1;HPM_P2
2023/03/02 00:00:14;;;;;;;50.37;28.93;;;2.00;99.90;;;2.03;75.50;101112.00;6283609;22;20172;-79
2023/03/02 00:02:43;;;;;;;56.17;31.17;;;2.00;99.90;;;2.01;75.47;101105.97;6288538;22;20176;-77
2023/03/02 00:05:13;;;;;;;52.97;30.97;;;2.00;99.90;;;2.00;75.26;101111.00;6287660;22;20540;-76
2023/03/02 00:07:43;;;;;;;54.90;30.27;;;2.00;99.90;;;2.00;75.16;101100.84;6289046;22;20173;-75
2023/03/02 00:10:12;;;;;;;47.90;29.67;;;2.00;99.90;;;2.00;75.56;101111.00;6280297;22;20376;-75
2023/03/02 00:12:41;;;;;;;49.50;30.73;;;2.00;99.90;;;1.98;75.83;101107.53;6286003;22;20196;-75
2023/03/02 00:15:11;;;;;;;53.03;30.93;;;1.90;99.90;;;1.97;75.04;101113.44;6281331;22;20176;-76
2023/03/02 00:17:39;;;;;;;51.53;29.37;;;1.90;99.90;;;1.94;75.82;101106.53;6285457;22;20254;-77
2023/03/02 00:20:10;;;;;;;51.07;29.70;;;1.90;99.90;;;1.92;75.23;101103.94;6283863;22;20626;-72
2023/03/02 00:22:41;;;;;;;52.20;29.37;;;1.90;99.90;;;1.92;75.43;101103.94;6273939;22;20176;-72
2023/03/02 00:25:13;;;;;;;49.70;29.47;;;1.90;99.90;;;1.90;75.85;101097.06;6273290;22;20670;-72
2023/03/02 00:27:42;;;;;;;57.33;30.23;;;1.90;99.90;;;1.89;75.65;101098.72;6273577;22;20164;-71
2023/03/02 00:30:15;;;;;;;48.67;28.67;;;1.90;99.90;;;1.89;75.64;101093.66;6274379;22;20559;-71
2023/03/02 00:32:44;;;;;;;53.83;29.53;;;1.90;99.90;;;1.87;75.74;101100.34;6274388;22;20157;-72
2023/03/02 00:35:13;;;;;;;47.40;28.63;;;1.80;99.90;;;1.87;75.49;101099.47;6275010;22;20511;-72
2023/03/02 00:37:42;;;;;;;54.57;29.73;;;1.80;99.90;;;1.83;75.77;101098.47;6274943;22;20259;-73
2023/03/02 00:40:13;;;;;;;46.50;29.43;;;1.80;99.90;;;1.84;76.16;101097.69;6273954;22;20506;-71
2023/03/02 00:42:41;;;;;;;49.50;29.93;;;1.80;99.90;;;1.83;75.91;101101.00;6274242;22;20161;-73
2023/03/02 00:45:10;;;;;;;53.60;30.87;;;1.90;99.90;;;1.80;75.88;101098.34;6273481;22;20208;-71
2023/03/02 00:47:39;;;;;;;51.23;30.90;;;1.80;99.90;;;1.81;75.56;101110.28;6274773;22;20222;-70
2023/03/02 00:50:10;;;;;;;55.07;30.67;;;1.80;99.90;;;1.78;75.82;101107.59;6273276;22;20184;-70
2023/03/02 00:52:39;;;;;;;49.80;29.50;;;1.70;99.90;;;1.77;75.71;101103.31;6274576;22;20238;-72
2023/03/02 00:55:09;;;;;;;53.33;30.27;;;1.80;99.90;;;1.75;76.25;101110.00;6273875;22;20290;-72
2023/03/02 00:57:40;;;;;;;57.03;30.83;;;1.70;99.90;;;1.74;75.74;101105.75;6274986;22;20177;-71
2023/03/02 01:00:10;;;;;;;45.47;28.73;;;1.70;99.90;;;1.72;75.97;101103.94;6274423;22;20621;-70
2023/03/02 01:02:42;;;;;;;51.60;30.30;;;1.70;99.90;;;1.69;75.89;101099.56;6273863;22;20180;-72
2023/03/02 01:05:14;;;;;;;53.37;30.10;;;1.70;99.90;;;1.69;75.49;101094.50;6272506;22;20174;-71
2023/03/02 01:07:43;;;;;;;50.73;30.07;;;1.70;99.90;;;1.68;76.00;101092.78;6274483;22;20172;-70
2023/03/02 01:10:14;;;;;;;53.60;29.30;;;1.70;99.90;;;1.68;75.49;101087.69;6275050;22;20255;-70
2023/03/02 01:12:44;;;;;;;50.50;30.07;;;1.70;99.90;;;1.69;75.78;101094.50;6274147;22;20161;-71
2023/03/02 01:15:13;;;;;;;45.90;28.53;;;1.60;99.90;;;1.68;75.74;101096.19;6273012;22;20532;-72
2023/03/02 01:17:42;;;;;;;49.27;29.00;;;1.60;99.90;;;1.66;75.72;101086.78;6272555;22;20187;-71
2023/03/02 01:20:12;;;;;;;51.13;29.53;;;1.60;99.90;;;1.64;76.05;101088.38;6272719;22;20610;-71
2023/03/02 01:22:42;;;;;;;44.47;27.57;;;1.60;99.90;;;1.59;75.93;101082.25;6273323;22;20507;-70
2023/03/02 01:25:12;;;;;;;48.33;28.77;;;1.60;99.90;;;1.55;76.43;101080.38;6272217;22;20169;-71
2023/03/02 01:27:41;;;;;;;54.70;29.43;;;1.60;99.90;;;1.53;76.42;101081.97;6274826;22;20463;-71
2023/03/02 01:30:13;;;;;;;59.10;30.97;;;1.50;99.90;;;1.50;76.33;101079.31;6274236;22;20193;-72
2023/03/02 01:32:41;;;;;;;51.17;31.00;;;1.50;99.90;;;1.53;76.57;101084.53;6273293;22;20176;-69
2023/03/02 01:35:10;;;;;;;52.63;30.13;;;1.50;99.90;;;1.52;76.24;101080.25;6273828;22;20206;-72
2023/03/02 01:37:39;;;;;;;51.63;28.73;;;1.50;99.90;;;1.53;76.54;101076.91;6274226;22;20528;-72
2023/03/02 01:40:10;;;;;;;49.33;29.97;;;1.50;99.90;;;1.53;76.86;101077.75;6274169;22;20176;-71
2023/03/02 01:42:47;;;;;;;56.13;30.67;;;1.50;99.90;;;1.55;76.68;101077.84;6272489;22;20502;-70
2023/03/02 01:45:51;;;;;;;49.50;29.60;;;1.50;99.90;;;1.59;76.25;101077.16;6274145;22;20176;-72
2023/03/02 01:48:29;;;;;;;48.53;30.00;;;1.60;99.90;;;1.62;76.91;101078.16;6305191;22;20496;-71
2023/03/02 01:50:58;;;;;;;44.53;25.47;;;1.60;99.90;;;1.63;76.50;101079.03;6305170;22;20168;-71
2023/03/02 01:53:31;;;;;;;39.23;23.70;;;1.70;99.90;;;1.59;76.27;101082.25;6304746;22;20243;-71
2023/03/02 01:56:00;;;;;;;42.93;24.10;;;1.60;99.90;;;1.51;76.90;101073.41;6304387;22;20168;-73
2023/03/02 01:58:36;;;;;;;42.40;22.13;;;1.60;99.90;;;1.44;77.42;101067.25;6305148;22;20245;-71
2023/03/02 02:01:14;;;;;;;34.57;20.30;;;1.60;99.90;;;1.36;78.54;101066.94;6305070;22;20160;-71
2023/03/02 02:03:45;;;;;;;37.90;20.77;;;1.60;99.90;;;1.33;78.95;101069.31;6305483;22;20230;-69
2023/03/02 02:06:21;;;;;;;37.57;19.67;;;1.50;99.90;;;1.28;78.76;101068.25;6304560;22;20207;-71
2023/03/02 02:08:52;;;;;;;32.57;19.67;;;1.50;99.90;;;1.24;79.16;101076.53;6305727;22;20160;-70
2023/03/02 02:11:21;;;;;;;34.27;18.30;;;1.50;99.90;;;1.20;79.46;101080.63;6305885;22;20210;-69
2023/03/02 02:13:50;;;;;;;34.80;18.87;;;1.40;99.90;;;1.17;79.35;101077.06;6304394;22;20176;-69
2023/03/02 02:16:20;;;;;;;31.50;18.77;;;1.40;99.90;;;1.15;79.75;101082.09;6305989;22;20682;-69
2023/03/02 02:18:49;;;;;;;31.10;18.20;;;1.40;99.90;;;1.13;79.87;101080.28;6302464;22;20621;-70
2023/03/02 02:21:19;;;;;;;34.43;19.27;;;1.40;99.90;;;1.10;79.80;101083.56;6303940;22;20230;-71
2023/03/02 02:24:01;;;;;;;31.13;18.20;;;1.30;99.90;;;1.11;80.13;101087.00;6304119;22;20183;-72
2023/03/02 02:26:36;;;;;;;33.33;18.17;;;1.30;99.90;;;1.09;80.40;101083.50;6305415;22;20249;-71
2023/03/02 02:29:11;;;;;;;29.83;16.77;;;1.30;99.90;;;1.10;80.51;101082.69;6304478;22;20199;-70
2023/03/02 02:31:45;;;;;;;34.47;17.57;;;1.30;99.90;;;1.12;80.63;101073.50;6305929;22;20497;-73
2023/03/02 02:34:23;;;;;;;26.97;16.17;;;1.40;99.90;;;1.13;80.40;101070.13;6304532;22;20163;-72
2023/03/02 02:36:58;;;;;;;37.00;17.17;;;1.40;99.90;;;1.14;80.84;101066.78;6305360;22;20190;-71
2023/03/02 02:39:32;;;;;;;32.60;17.77;;;1.40;99.90;;;1.18;80.99;101063.59;6306838;22;20189;-70
2023/03/02 02:42:07;;;;;;;31.73;18.00;;;1.40;99.90;;;1.20;80.87;101067.06;6307188;22;20164;-71
2023/03/02 02:44:36;;;;;;;31.27;16.90;;;1.40;99.90;;;1.19;80.20;101056.03;6307512;22;20574;-69
2023/03/02 02:47:06;;;;;;;31.57;16.90;;;1.40;99.90;;;1.22;80.39;101060.41;6304826;22;20230;-71
2023/03/02 02:49:38;;;;;;;33.23;18.73;;;1.50;99.90;;;1.23;80.91;101046.03;6306729;22;20172;-72
2023/03/02 02:52:12;;;;;;;31.70;18.33;;;1.50;99.90;;;1.26;80.83;101051.25;6306143;22;20164;-71
2023/03/02 02:54:44;;;;;;;30.57;16.97;;;1.50;99.90;;;1.26;80.58;101041.09;6306702;22;20619;-71
2023/03/02 02:57:18;;;;;;;33.00;18.37;;;1.50;99.90;;;1.26;80.61;101049.56;6306544;22;20168;-70
2023/03/02 02:59:51;;;;;;;31.97;17.90;;;1.50;99.90;;;1.27;80.95;101047.88;6305980;22;20176;-71
2023/03/02 03:02:23;;;;;;;30.10;17.50;;;1.50;99.90;;;1.30;80.75;101048.88;6306344;22;20168;-72
2023/03/02 03:05:02;;;;;;;32.13;17.97;;;1.50;99.90;;;1.29;80.53;101047.16;6306025;22;20171;-71
2023/03/02 03:07:32;;;;;;;35.33;20.10;;;1.50;99.90;;;1.28;80.59;101047.06;6307121;22;20206;-71
2023/03/02 03:10:10;;;;;;;30.53;19.47;;;1.50;99.90;;;1.31;80.73;101045.53;6305721;22;20206;-72
2023/03/02 03:12:40;;;;;;;31.60;18.40;;;1.50;99.90;;;1.34;80.17;101047.34;6305729;22;20164;-71
2023/03/02 03:15:11;;;;;;;31.97;17.30;;;1.60;99.90;;;1.32;80.66;101042.19;6305791;22;20156;-71
2023/03/02 03:17:40;;;;;;;33.40;18.13;;;1.60;99.90;;;1.36;80.62;101040.63;6306776;22;20176;-71
2023/03/02 03:20:15;;;;;;;30.03;17.13;;;1.60;99.90;;;1.38;80.85;101042.44;6305998;22;20565;-72
2023/03/02 03:22:43;;;;;;;28.57;17.67;;;1.60;99.90;;;1.39;80.18;101043.31;6304412;22;20164;-71
2023/03/02 03:25:14;;;;;;;30.60;18.27;;;1.60;99.90;;;1.40;80.71;101042.50;6305707;22;20187;-72
2023/03/02 03:27:44;;;;;;;33.10;18.27;;;1.60;99.90;;;1.43;80.02;101037.56;6305261;22;20562;-71
2023/03/02 03:30:15;;;;;;;32.67;18.00;;;1.60;99.90;;;1.43;80.19;101035.88;6306041;22;20184;-72
2023/03/02 03:32:44;;;;;;;29.47;17.53;;;1.70;99.90;;;1.44;80.05;101037.63;6304475;22;20168;-73
2023/03/02 03:35:13;;;;;;;30.17;18.30;;;1.70;99.90;;;1.44;80.40;101029.16;6306511;22;20226;-72
2023/03/02 03:37:44;;;;;;;30.80;17.67;;;1.70;99.90;;;1.48;80.30;101037.75;6305546;22;20759;-71
2023/03/02 03:40:13;;;;;;;30.53;17.37;;;1.70;99.90;;;1.46;80.57;101035.13;6305627;22;20207;-71
2023/03/02 03:42:43;;;;;;;30.07;17.47;;;1.70;99.90;;;1.51;80.17;101037.88;6306292;22;20172;-71
2023/03/02 03:45:12;;;;;;;30.87;17.80;;;1.70;99.90;;;1.56;80.21;101041.47;6304980;22;20609;-72
2023/03/02 03:47:41;;;;;;;27.47;16.80;;;1.80;99.90;;;1.64;79.54;101035.88;6305766;22;20203;-71
2023/03/02 03:50:11;;;;;;;31.37;17.43;;;1.80;99.90;;;1.68;80.10;101037.75;6305805;22;20545;-72
2023/03/02 03:52:39;;;;;;;28.10;16.83;;;1.80;99.90;;;1.73;79.96;101039.59;6305704;22;20210;-69
2023/03/02 03:55:10;;;;;;;29.23;16.97;;;1.90;99.90;;;1.77;79.25;101037.28;6306332;22;20222;-70
2023/03/02 03:57:38;;;;;;;27.80;17.63;;;1.90;99.90;;;1.81;79.04;101036.56;6306513;22;20156;-72
2023/03/02 04:00:15;;;;;;;26.70;16.83;;;1.90;99.90;;;1.87;79.26;101044.44;6305566;22;20187;-70
2023/03/02 04:02:46;;;;;;;28.97;17.47;;;2.00;99.90;;;1.93;79.27;101039.59;6305106;22;20172;-71
2023/03/02 04:05:14;;;;;;;29.53;17.00;;;2.10;99.90;;;1.99;79.25;101045.72;6306462;22;20176;-72
2023/03/02 04:07:43;;;;;;;31.10;18.20;;;2.10;99.90;;;2.04;79.06;101032.38;6304423;22;20196;-70
2023/03/02 04:10:12;;;;;;;29.07;17.63;;;2.20;99.90;;;2.08;78.52;101034.25;6305842;22;20640;-69
2023/03/02 04:12:42;;;;;;;30.63;17.83;;;2.20;99.90;;;2.12;77.90;101028.47;6306090;22;20179;-74
2023/03/02 04:15:16;;;;;;;26.87;17.17;;;2.30;99.90;;;2.16;78.18;101032.84;6307846;22;20172;-74
2023/03/02 04:17:45;;;;;;;26.50;16.53;;;2.20;99.90;;;2.18;77.40;101028.72;6308418;22;20175;-77
2023/03/02 04:20:15;;;;;;;28.57;17.70;;;2.30;99.90;;;2.17;77.96;101031.16;6307598;22;20172;-77
2023/03/02 04:22:45;;;;;;;29.50;16.70;;;2.30;99.90;;;2.19;77.47;101037.19;6307075;22;20168;-75
2023/03/02 04:25:18;;;;;;;30.43;16.80;;;2.30;99.90;;;2.17;77.96;101032.06;6303973;22;20202;-75
2023/03/02 04:27:47;;;;;;;27.10;16.13;;;2.30;99.90;;;2.21;77.81;101034.69;6305982;22;20188;-76
2023/03/02 04:30:23;;;;;;;26.33;16.17;;;2.30;99.90;;;2.21;77.78;101030.50;6308713;22;20686;-77
2023/03/02 04:32:52;;;;;;;28.97;16.63;;;2.30;99.90;;;2.23;77.22;101033.09;6311460;22;20172;-77
2023/03/02 04:35:21;;;;;;;28.30;17.17;;;2.40;99.90;;;2.22;77.32;101029.69;6314310;22;20172;-78
2023/03/02 04:37:50;;;;;;;28.93;17.10;;;2.40;99.90;;;2.23;77.85;101028.00;6313425;22;20652;-75
2023/03/02 04:40:18;;;;;;;27.70;15.87;;;2.30;99.90;;;2.19;77.69;101024.47;6315337;22;20179;-77
2023/03/02 04:42:47;;;;;;;29.70;16.47;;;2.30;99.90;;;2.13;77.61;101024.25;6279572;22;20180;-71
2023/03/02 04:45:18;;;;;;;31.60;17.07;;;2.30;99.90;;;2.08;77.42;101028.28;6305337;22;20241;-74
2023/03/02 04:47:47;;;;;;;28.57;17.20;;;2.30;99.90;;;2.08;77.70;101023.22;6302856;22;20246;-71
2023/03/02 04:50:16;;;;;;;27.40;17.43;;;2.30;99.90;;;2.09;77.04;101024.94;6305119;22;20183;-71
2023/03/02 04:52:44;;;;;;;27.43;16.70;;;2.30;99.90;;;2.10;77.54;101032.63;6305522;22;20455;-69
2023/03/02 04:55:19;;;;;;;28.43;16.47;;;2.20;99.90;;;2.11;77.87;101034.38;6307550;22;20183;-76
2023/03/02 04:57:48;;;;;;;30.87;18.20;;;2.20;99.90;;;2.13;77.08;101031.88;6311652;22;20825;-75
2023/03/02 05:00:20;;;;;;;28.20;17.00;;;2.30;99.90;;;2.14;77.80;101029.41;6310153;22;20501;-79
2023/03/02 05:02:49;;;;;;;25.97;16.07;;;2.30;99.90;;;2.15;76.81;101036.22;6308256;22;20226;-75
2023/03/02 05:05:21;;;;;;;29.30;17.03;;;2.30;99.90;;;2.14;77.49;101036.16;6307494;22;20180;-76
2023/03/02 05:07:50;;;;;;;28.60;16.43;;;2.30;99.90;;;2.13;77.62;101047.13;6307515;22;20188;-76
2023/03/02 05:10:22;;;;;;;30.33;17.37;;;2.30;99.90;;;2.10;77.55;101042.81;6307004;22;20180;-78
2023/03/02 05:13:03;;;;;;;31.93;18.10;;;2.30;99.90;;;2.08;77.17;101043.53;6307602;22;20237;-74
2023/03/02 05:15:37;;;;;;;30.13;17.47;;;2.20;99.90;;;2.02;77.42;101044.16;6309580;22;20168;-76
2023/03/02 05:18:08;;;;;;;31.30;17.83;;;2.20;99.90;;;2.01;77.69;101046.66;6309674;22;20272;-77
2023/03/02 05:20:38;;;;;;;30.50;18.33;;;2.20;99.90;;;1.98;77.45;101046.53;6309193;22;20166;-74
2023/03/02 05:23:10;;;;;;;30.20;18.70;;;2.20;99.90;;;1.96;78.00;101050.69;6307257;22;20212;-77
2023/03/02 05:25:39;;;;;;;33.80;19.43;;;2.20;99.90;;;1.97;77.95;101052.44;6307874;22;20560;-78
2023/03/02 05:28:08;;;;;;;33.30;19.30;;;2.10;99.90;;;2.00;78.32;101047.47;6307772;22;20204;-79
2023/03/02 05:30:38;;;;;;;31.23;18.83;;;2.10;99.90;;;2.03;77.58;101052.69;6307507;22;20637;-75
2023/03/02 05:33:07;;;;;;;32.20;19.23;;;2.20;99.90;;;2.07;77.91;101052.00;6305172;22;20233;-77
2023/03/02 05:35:36;;;;;;;32.50;18.53;;;2.20;99.90;;;2.11;77.59;101051.28;6307048;22;20179;-78
2023/03/02 05:38:06;;;;;;;32.37;17.93;;;2.20;99.90;;;2.13;77.19;101058.16;6307117;22;20171;-76
2023/03/02 05:40:35;;;;;;;31.17;18.20;;;2.20;99.90;;;2.11;76.97;101051.28;6307961;22;20278;-79
2023/03/02 05:43:04;;;;;;;30.90;17.90;;;2.20;99.90;;;2.07;76.91;101050.31;6285471;22;20237;-74
2023/03/02 05:45:36;;;;;;;32.33;18.90;;;2.20;99.90;;;2.06;77.52;101055.31;6297611;22;20262;-76
2023/03/02 05:48:07;;;;;;;31.47;20.07;;;2.20;99.90;;;2.07;77.32;101055.38;6319856;22;20188;-76
2023/03/02 05:50:36;;;;;;;30.20;18.33;;;2.20;99.90;;;2.06;77.26;101052.78;6303919;22;20163;-71
2023/03/02 05:53:05;;;;;;;32.13;18.80;;;2.20;99.90;;;2.12;77.20;101055.56;6304099;22;20492;-69
2023/03/02 05:55:35;;;;;;;31.40;19.60;;;2.30;99.90;;;2.16;77.33;101058.28;6304067;22;20183;-71
2023/03/02 05:58:06;;;;;;;33.67;18.63;;;2.30;99.90;;;2.21;77.12;101066.09;6302143;22;20186;-71
2023/03/02 06:00:34;;;;;;;30.63;18.27;;;2.30;99.90;;;2.22;77.60;101059.34;6304272;22;20176;-72
2023/03/02 06:03:04;;;;;;;32.03;18.93;;;2.40;99.90;;;2.23;76.64;101069.56;6305275;22;20183;-69
2023/03/02 06:05:34;;;;;;;33.03;19.40;;;2.40;99.90;;;2.22;76.31;101070.38;6306091;22;20173;-70
2023/03/02 06:08:03;;;;;;;34.47;20.43;;;2.40;99.90;;;2.21;77.28;101070.28;6304660;22;20285;-73
2023/03/02 06:10:34;;;;;;;34.93;20.37;;;2.40;99.90;;;2.20;77.14;101064.34;6304959;22;20168;-70
2023/03/02 06:13:02;;;;;;;32.70;19.97;;;2.40;99.90;;;2.26;76.63;101074.75;6305955;22;20172;-70
2023/03/02 06:15:31;;;;;;;34.00;19.20;;;2.40;99.90;;;2.32;76.99;101085.19;6314439;22;20190;-76
2023/03/02 06:18:02;;;;;;;34.77;19.47;;;2.40;99.90;;;2.36;76.94;101081.94;6321603;22;20225;-77
2023/03/02 06:20:32;;;;;;;33.17;19.87;;;2.50;99.90;;;2.37;76.71;101082.81;6319303;22;20164;-76
2023/03/02 06:23:00;;;;;;;32.33;19.53;;;2.50;99.90;;;2.38;76.85;101095.56;6323088;22;20164;-72
2023/03/02 06:25:29;;;;;;;33.60;18.03;;;2.50;99.90;;;2.42;76.56;101099.97;6326377;22;20180;-79
2023/03/02 06:27:58;;;;;;;33.70;18.67;;;2.60;99.90;;;2.48;76.87;101106.13;6313244;22;20173;-78
2023/03/02 06:30:27;;;;;;;28.23;17.00;;;2.60;99.90;;;2.53;76.53;101112.22;6312659;22;20187;-79
2023/03/02 06:32:56;;;;;;;32.33;18.50;;;2.60;99.90;;;2.54;76.42;101106.31;6316312;22;20236;-80
2023/03/02 06:35:25;;;;;;;32.13;19.07;;;2.70;99.90;;;2.53;76.41;101105.47;6315627;22;20255;-82
2023/03/02 06:37:55;;;;;;;32.00;19.00;;;2.70;99.90;;;2.56;76.69;101100.50;6316973;22;20227;-84
2023/03/02 06:40:24;;;;;;;34.93;18.67;;;2.70;99.90;;;2.57;76.42;101111.53;6321165;22;20164;-82
2023/03/02 06:42:53;;;;;;;31.13;18.90;;;2.70;99.90;;;2.61;76.18;101108.28;6312623;22;20259;-81
2023/03/02 06:45:21;;;;;;;30.67;18.90;;;2.70;99.90;;;2.64;75.92;101106.72;6313258;22;20588;-81
2023/03/02 06:47:51;;;;;;;31.07;18.87;;;2.70;99.90;;;2.72;75.58;101106.16;6316411;22;20172;-80
2023/03/02 06:50:20;;;;;;;34.13;19.73;;;2.80;99.90;;;2.76;76.41;101106.34;6317809;22;20196;-83
2023/03/02 06:52:48;;;;;;;29.53;17.23;;;2.80;99.90;;;2.79;75.64;101103.88;6288811;22;20176;-80
2023/03/02 06:55:19;;;;;;;32.27;18.33;;;2.90;99.90;;;2.81;75.50;101103.97;6314602;22;20180;-78
2023/03/02 06:57:48;;;;;;;30.23;18.67;;;2.90;99.90;;;2.80;76.55;101107.28;6316584;22;20516;-83
2023/03/02 07:00:23;;;;;;;30.27;18.30;;;2.90;99.90;;;2.83;76.27;101104.88;6313435;22;20176;-82
2023/03/02 07:02:56;;;;;;;33.20;18.60;;;2.90;99.90;;;2.85;76.08;101104.13;6323878;22;20163;-81
2023/03/02 07:05:25;;;;;;;34.20;19.83;;;3.00;99.90;;;2.87;75.56;101097.41;6324819;22;20172;-81
2023/03/02 07:07:55;;;;;;;33.03;19.70;;;3.00;99.90;;;2.89;76.05;101108.50;6323408;22;20171;-78
2023/03/02 07:10:27;;;;;;;31.07;21.17;;;3.00;99.90;;;2.86;75.32;101110.94;6315381;22;20242;-71
2023/03/02 07:27:37;;;;;;;31.73;18.00;;;2.90;99.90;;;2.82;75.36;101088.72;6183083;23;20144;-73
2023/03/02 07:32:48;;;;;;;33.10;18.73;;;2.90;99.90;;;2.86;75.85;101094.81;6223704;22;20199;-74
2023/03/02 07:35:18;;;;;;;33.50;18.70;;;2.90;99.90;;;2.83;76.12;101090.47;6304118;22;20156;-73
2023/03/02 07:37:48;;;;;;;32.57;19.47;;;3.00;99.90;;;2.93;75.49;101095.91;6291907;22;22149;-77
2023/03/02 07:40:16;;;;;;;32.90;19.37;;;3.00;99.90;;;2.92;75.73;101089.94;6348235;22;20477;-75
2023/03/02 07:42:47;;;;;;;31.23;18.60;;;3.00;99.90;;;2.96;75.98;101096.88;6347178;22;20274;-74
2023/03/02 07:45:19;;;;;;;33.57;19.90;;;3.00;99.90;;;2.99;75.00;101091.03;6356556;22;20283;-74
2023/03/02 07:47:47;;;;;;;33.67;20.73;;;3.10;99.90;;;3.06;75.77;101098.09;6359369;22;20152;-76
2023/03/02 07:50:16;;;;;;;38.23;20.27;;;3.10;99.90;;;3.08;75.40;101096.44;6354388;22;20207;-76
2023/03/02 07:52:45;;;;;;;36.00;20.60;;;3.10;99.90;;;3.12;74.69;101099.16;6344870;22;20255;-77
2023/03/02 07:55:14;;;;;;;33.00;19.73;;;3.20;99.90;;;3.14;74.58;101091.59;6355417;22;20269;-78
2023/03/02 07:57:44;;;;;;;36.27;20.27;;;3.20;99.90;;;3.10;74.93;101089.75;6348834;22;20198;-77
2023/03/02 08:00:16;;;;;;;33.57;20.90;;;3.20;99.90;;;3.13;75.25;101085.63;6352846;22;20237;-76
2023/03/02 08:02:45;;;;;;;32.70;18.60;;;3.20;99.90;;;3.15;75.59;101083.97;6350484;22;20503;-76
2023/03/02 08:05:17;;;;;;;32.73;20.30;;;3.20;99.90;;;3.14;74.97;101086.47;6348388;22;20156;-75
2023/03/02 08:07:47;;;;;;;34.23;20.27;;;3.20;99.90;;;3.11;74.40;101083.81;6340379;22;20599;-77
2023/03/02 08:10:16;;;;;;;32.10;18.67;;;3.20;99.90;;;3.09;74.78;101082.88;6344858;22;20221;-76
2023/03/02 08:12:45;;;;;;;34.07;19.50;;;3.20;99.90;;;3.08;75.36;101073.53;6348955;22;20156;-76
2023/03/02 08:15:15;;;;;;;32.27;18.97;;;3.20;99.90;;;3.06;74.41;101068.41;6357534;22;20176;-82
2023/03/02 08:17:43;;;;;;;33.23;19.27;;;3.20;99.90;;;3.15;74.82;101075.47;6346709;22;20163;-82
2023/03/02 08:20:14;;;;;;;33.37;18.77;;;3.20;99.90;;;3.17;75.13;101073.88;6356344;22;20155;-75
2023/03/02 08:22:43;;;;;;;28.20;18.00;;;3.20;99.90;;;3.19;74.36;101068.81;6352542;22;20236;-78
2023/03/02 08:25:11;;;;;;;30.33;17.93;;;3.30;99.90;;;3.16;75.05;101069.56;6347044;22;20197;-76
2023/03/02 08:27:40;;;;;;;31.70;17.73;;;3.30;99.90;;;3.18;74.79;101067.09;6345013;22;20572;-78
2023/03/02 08:30:11;;;;;;;33.93;19.33;;;3.30;99.90;;;3.15;75.24;101067.84;6286548;22;20250;-79
2023/03/02 08:32:41;;;;;;;30.10;18.33;;;3.30;99.90;;;3.20;74.31;101068.84;6313707;22;20156;-75
2023/03/02 08:35:11;;;;;;;29.20;17.53;;;3.30;99.90;;;3.20;74.22;101066.31;6312118;22;20168;-73
2023/03/02 08:37:40;;;;;;;26.37;16.87;;;3.30;99.90;;;3.17;74.42;101065.34;6312609;22;20609;-72
2023/03/02 08:40:11;;;;;;;30.70;17.33;;;3.30;99.90;;;3.17;74.02;101068.78;6314364;22;20229;-77
2023/03/02 08:42:40;;;;;;;28.50;18.73;;;3.30;99.90;;;3.19;73.53;101067.13;6312014;22;20590;-81
2023/03/02 08:45:10;;;;;;;32.27;18.47;;;3.30;99.90;;;3.22;74.42;101071.47;6308191;22;20172;-78
2023/03/02 08:47:40;;;;;;;22.93;15.10;;;3.30;99.90;;;3.27;74.20;101077.59;6307932;22;20176;-79
2023/03/02 08:50:10;;;;;;;23.00;14.47;;;3.40;99.90;;;3.27;73.19;101070.81;6310125;22;20200;-78
2023/03/02 08:52:39;;;;;;;16.97;12.03;;;3.40;99.90;;;3.27;72.26;101065.72;6307352;22;20586;-81
2023/03/02 08:55:10;;;;;;;24.47;13.10;;;3.40;99.90;;;3.29;73.19;101070.88;6307988;22;20179;-79
2023/03/02 08:57:40;;;;;;;18.50;12.00;;;3.40;99.90;;;3.28;72.02;101075.09;6307934;22;20187;-79
2023/03/02 09:00:13;;;;;;;18.80;12.53;;;3.40;99.90;;;3.28;72.90;101069.16;6308708;22;20172;-79
2023/03/02 09:02:44;;;;;;;14.63;9.50;;;3.50;99.90;;;3.31;71.94;101069.22;6309409;22;20160;-82
2023/03/02 09:05:12;;;;;;;12.57;8.63;;;3.40;99.90;;;3.35;72.19;101066.84;6285832;22;20330;-79
2023/03/02 09:07:45;;;;;;;13.00;8.47;;;3.40;99.90;;;3.35;71.30;101061.75;6314343;22;20164;-80
2023/03/02 09:10:15;;;;;;;11.73;8.23;;;3.50;99.90;;;3.35;70.96;101069.41;6317327;22;20196;-78
2023/03/02 09:12:43;;;;;;;14.17;8.23;;;3.50;99.90;;;3.35;70.95;101066.84;6328907;22;20164;-79
2023/03/02 09:15:12;;;;;;;13.07;8.13;;;3.50;99.90;;;3.39;71.41;101065.28;6329907;22;20172;-81
2023/03/02 09:17:41;;;;;;;13.23;8.80;;;3.50;99.90;;;3.43;70.62;101066.25;6314296;22;20234;-77
2023/03/02 09:20:13;;;;;;;16.20;10.20;;;3.60;99.90;;;3.46;70.30;101071.44;6309240;22;20474;-75
2023/03/02 09:23:07;;;;;;;14.73;9.07;;;3.60;99.90;;;3.47;70.22;101065.53;6312063;22;20161;-77
2023/03/02 09:25:35;;;;;;;15.37;9.03;;;3.60;99.90;;;3.48;70.25;101072.34;6313470;22;20179;-76
2023/03/02 09:28:04;;;;;;;14.47;9.60;;;3.60;99.90;;;3.47;69.37;101070.63;6312377;22;20176;-76
2023/03/02 09:30:33;;;;;;;14.80;9.70;;;3.60;99.90;;;3.49;70.32;101064.75;6303399;22;20334;-73
2023/03/02 09:33:02;;;;;;;18.90;11.23;;;3.60;99.90;;;3.54;70.21;101063.25;6303201;22;20181;-76
2023/03/02 09:35:32;;;;;;;17.13;10.87;;;3.60;99.90;;;3.57;69.69;101068.44;6305241;22;20501;-81
2023/03/02 09:38:00;;;;;;;19.40;11.10;;;3.60;99.90;;;3.60;69.88;101072.75;6313016;22;20171;-77
2023/03/02 09:40:29;;;;;;;18.03;11.17;;;3.60;99.90;;;3.58;70.37;101065.06;6309323;22;20180;-78
2023/03/02 09:43:16;;;;;;;14.33;9.90;;;3.70;99.90;;;3.60;70.69;101065.97;6304840;22;20230;-76
2023/03/02 09:46:04;;;;;;;14.53;9.43;;;3.70;99.90;;;3.62;70.66;101059.25;6319506;22;20166;-75
2023/03/02 09:48:46;;;;;;;16.47;10.07;;;3.70;99.90;;;3.65;69.63;101055.97;6323834;22;20160;-76
2023/03/02 09:51:32;;;;;;;18.10;10.73;;;3.70;99.90;;;3.72;70.35;101060.44;6319713;22;20233;-79
2023/03/02 09:54:08;;;;;;;19.20;11.63;;;3.80;99.90;;;3.74;69.90;101057.94;6311082;22;20506;-77
2023/03/02 09:56:43;;;;;;;16.63;10.87;;;3.80;99.90;;;3.77;69.95;101053.78;6329388;22;20166;-77
2023/03/02 09:59:23;;;;;;;19.57;12.00;;;3.80;99.90;;;3.73;69.63;101043.47;6322807;22;20171;-79
2023/03/02 10:02:00;;;;;;;18.37;11.67;;;3.80;99.90;;;3.72;69.85;101051.91;6325285;22;20206;-81
2023/03/02 10:04:37;;;;;;;18.43;11.30;;;3.80;99.90;;;3.74;70.38;101047.72;6331341;22;20270;-76
2023/03/02 10:07:15;;;;;;;17.70;9.87;;;3.80;99.90;;;3.75;69.73;101052.00;6337097;22;20157;-75
2023/03/02 10:09:47;;;;;;;16.37;9.77;;;3.80;99.90;;;3.68;69.96;101050.94;6335244;22;20179;-76
2023/03/02 10:12:51;;;;;;;9.97;7.20;;;3.80;99.90;;;3.60;69.85;101054.91;6349479;22;20646;-83
2023/03/02 10:15:35;;;;;;;8.13;5.13;;;3.80;99.90;;;3.57;69.15;101057.38;6348437;22;20166;-77
2023/03/02 10:18:17;;;;;;;7.70;5.57;;;3.70;99.90;;;3.57;68.37;101052.25;6350825;22;20197;-78
2023/03/02 10:20:54;;;;;;;8.43;5.30;;;3.70;99.90;;;3.62;68.65;101051.63;6345039;22;20566;-81
2023/03/02 10:23:44;;;;;;;10.33;5.90;;;3.70;99.90;;;3.65;69.15;101042.34;6347521;22;20159;-80
2023/03/02 10:26:24;;;;;;;7.77;6.07;;;3.80;99.90;;;3.66;68.62;101041.53;6349186;22;20272;-82
2023/03/02 10:29:05;;;;;;;11.27;6.17;;;3.90;99.90;;;3.72;69.40;101037.50;6330260;22;20256;-79
2023/03/02 10:31:34;;;;;;;9.77;5.00;;;3.90;99.90;;;3.79;68.27;101041.09;6318828;22;20188;-81
2023/03/02 10:34:03;;;;;;;4.90;3.07;;;3.90;99.90;;;3.72;67.70;101032.41;6320996;22;20236;-79
2023/03/02 10:36:39;;;;;;;3.67;2.77;;;3.90;99.90;;;3.64;67.14;101033.81;6317673;22;20164;-76
2023/03/02 10:39:16;;;;;;;5.10;3.20;;;3.90;99.90;;;3.67;66.57;101033.91;6314155;22;20468;-78
2023/03/02 10:41:51;;;;;;;5.43;3.47;;;3.90;99.90;;;3.78;66.59;101027.47;6317818;22;20597;-77
2023/03/02 10:44:29;;;;;;;4.40;3.00;;;4.00;99.90;;;3.91;66.32;101017.69;6322622;22;20546;-82
2023/03/02 10:46:58;;;;;;;6.63;3.93;;;4.10;99.90;;;4.05;66.00;101027.50;6324125;22;20239;-77